createdAt,value
2023-04-15T00:01:12.100Z,99999.31
2023-04-15T00:03:39.177Z,100000.47
2023-04-15T00:06:06.350Z,99996.78
2023-04-15T00:08:33.284Z,99995.53
2023-04-15T00:11:05.814Z,99992.75
2023-04-15T00:13:35.447Z,99991.09
2023-04-15T00:16:02.333Z,99986.69
2023-04-15T00:18:32.246Z,99980.09
2023-04-15T00:20:59.694Z,99987.19
2023-04-15T00:23:26.801Z,99985.00
2023-04-15T00:25:53.449Z,99976.28
2023-04-15T00:28:23.054Z,99978.88
2023-04-15T00:30:51.350Z,99983.38
2023-04-15T00:33:19.462Z,99971.97
2023-04-15T00:35:46.108Z,99974.69
2023-04-15T00:38:13.274Z,99979.38
2023-04-15T00:40:40.036Z,99978.44
2023-04-15T00:43:07.170Z,99981.69
2023-04-15T00:45:34.326Z,99971.16
2023-04-15T00:48:01.134Z,99975.13
2023-04-15T00:50:27.942Z,99961.25
2023-04-15T00:52:54.547Z,99972.19
2023-04-15T00:55:21.318Z,99976.47
2023-04-15T00:57:48.676Z,99966.47
2023-04-15T01:00:18.936Z,99971.56
2023-04-15T01:02:45.898Z,99976.75
2023-04-15T01:05:13.198Z,99965.84
2023-04-15T01:07:39.836Z,99960.00
2023-04-15T01:10:07.151Z,99960.84
2023-04-15T01:12:34.403Z,99958.22
2023-04-15T01:15:02.357Z,99960.69
2023-04-15T01:17:29.528Z,99959.88
2023-04-15T01:19:58.035Z,99954.91
2023-04-15T01:22:26.965Z,99944.75
2023-04-15T01:25:12.747Z,99961.34
2023-04-15T01:27:42.323Z,99952.06
2023-04-15T01:30:09.628Z,99954.78
2023-04-15T01:32:37.128Z,99948.09
2023-04-15T01:35:04.119Z,99956.34
2023-04-15T01:37:31.120Z,99941.53
2023-04-15T01:39:59.863Z,99942.16
2023-04-15T01:42:27.879Z,99949.59
2023-04-15T01:44:54.872Z,99935.28
2023-04-15T01:47:21.850Z,99952.69
2023-04-15T01:49:48.664Z,99953.13
2023-04-15T01:52:17.874Z,99954.91
2023-04-15T01:54:44.705Z,99939.16
2023-04-15T01:57:11.603Z,99939.34
2023-04-15T01:59:38.771Z,99943.59
2023-04-15T02:02:05.579Z,99942.59
2023-04-15T02:04:34.009Z,99939.56
2023-04-15T02:07:00.919Z,99938.72
2023-04-15T02:09:32.152Z,99947.28
2023-04-15T02:11:58.950Z,99929.22
2023-04-15T02:14:26.189Z,99931.63
2023-04-15T02:16:53.236Z,99940.81
2023-04-15T02:19:20.298Z,99929.13
2023-04-15T02:21:46.911Z,99923.63
2023-04-15T02:24:22.278Z,99938.94
2023-04-15T02:26:49.314Z,99940.47
2023-04-15T02:29:16.337Z,99926.44
2023-04-15T02:31:43.851Z,99933.41
2023-04-15T02:34:10.752Z,99924.03
2023-04-15T02:36:38.300Z,99930.28
2023-04-15T02:39:05.176Z,99922.56
2023-04-15T02:41:32.007Z,99923.91
2023-04-15T02:43:58.714Z,99934.53
2023-04-15T02:46:25.760Z,99932.25
2023-04-15T02:48:53.803Z,99933.09
2023-04-15T02:51:22.937Z,99943.31
2023-04-15T02:53:51.042Z,99933.81
2023-04-15T02:56:19.565Z,99938.00
2023-04-15T02:58:46.670Z,99936.63
2023-04-15T03:01:19.231Z,99926.53
2023-04-15T03:03:46.637Z,99939.56
2023-04-15T03:06:13.742Z,99945.50
2023-04-15T03:08:40.856Z,99936.31
2023-04-15T03:11:08.805Z,99930.47
2023-04-15T03:13:35.497Z,99933.19
2023-04-15T03:16:02.382Z,99937.28
2023-04-15T03:18:29.406Z,99932.38
2023-04-15T03:20:56.123Z,99935.06
2023-04-15T03:23:26.398Z,99941.53
2023-04-15T03:25:55.919Z,99942.78
2023-04-15T03:28:22.722Z,99945.50
2023-04-15T03:30:49.842Z,99943.13
2023-04-15T03:33:16.474Z,99943.31
2023-04-15T03:35:43.161Z,99948.97
2023-04-15T03:38:09.980Z,99945.72
2023-04-15T03:40:36.871Z,99948.00
2023-04-15T03:43:03.485Z,99933.72
2023-04-15T03:45:30.334Z,99938.19
2023-04-15T03:48:03.603Z,99937.28
2023-04-15T03:50:38.081Z,99928.72
2023-04-15T03:53:04.743Z,99934.88
2023-04-15T03:55:31.738Z,99948.72
2023-04-15T03:57:58.417Z,99947.59
2023-04-15T04:00:25.796Z,99939.34
2023-04-15T04:02:54.632Z,99948.53
2023-04-15T04:05:21.305Z,99947.25
2023-04-15T04:07:51.304Z,99953.34
2023-04-15T04:10:21.613Z,99950.22
2023-04-15T04:12:48.251Z,99954.47
2023-04-15T04:15:15.043Z,99949.06
2023-04-15T04:17:45.067Z,99952.91
2023-04-15T04:20:12.595Z,99950.94
2023-04-15T04:22:42.555Z,99949.59
2023-04-15T04:25:13.135Z,99951.44
2023-04-15T04:27:39.759Z,99956.78
2023-04-15T04:30:07.381Z,99957.00
2023-04-15T04:32:34.291Z,99952.16
2023-04-15T04:35:01.039Z,99952.19
2023-04-15T04:37:27.708Z,99963.13
2023-04-15T04:39:54.450Z,99947.47
2023-04-15T04:42:21.200Z,99952.41
2023-04-15T04:44:47.962Z,99955.09
2023-04-15T04:47:17.517Z,99959.06
2023-04-15T04:49:44.339Z,99955.00
2023-04-15T04:52:11.786Z,99956.13
2023-04-15T04:54:38.550Z,99959.38
2023-04-15T04:57:05.196Z,99966.97
2023-04-15T04:59:31.808Z,99962.19
2023-04-15T05:01:58.587Z,99958.63
2023-04-15T05:04:25.422Z,99965.31
2023-04-15T05:06:52.209Z,99966.97
2023-04-15T05:09:19.319Z,99961.47
2023-04-15T05:11:46.175Z,99971.34
2023-04-15T05:14:12.854Z,99979.91
2023-04-15T05:16:39.519Z,99976.38
2023-04-15T05:19:06.294Z,99980.97
2023-04-15T05:21:33.009Z,99967.47
2023-04-15T05:23:59.710Z,99978.03
2023-04-15T05:26:27.591Z,99986.56
2023-04-15T05:28:54.378Z,99976.56
2023-04-15T05:31:21.332Z,99984.09
2023-04-15T05:33:48.202Z,99988.25
2023-04-15T05:36:16.373Z,99983.13
2023-04-15T05:38:42.978Z,99996.59
2023-04-15T05:41:09.634Z,99983.25
2023-04-15T05:43:36.342Z,99997.41
2023-04-15T05:46:02.995Z,99986.84
2023-04-15T05:48:29.741Z,99982.59
2023-04-15T05:50:56.612Z,99990.09
2023-04-15T05:53:23.341Z,99991.22
2023-04-15T05:55:50.034Z,99989.00
2023-04-15T05:58:16.664Z,99983.00
2023-04-15T06:00:43.957Z,99982.28
2023-04-15T06:03:11.901Z,99984.91
2023-04-15T06:05:41.759Z,99982.44
2023-04-15T06:08:09.880Z,99975.22
2023-04-15T06:10:37.027Z,99988.19
2023-04-15T06:13:04.941Z,99994.13
2023-04-15T06:15:32.114Z,99998.19
2023-04-15T06:17:58.891Z,99985.81
2023-04-15T06:20:28.743Z,99986.41
2023-04-15T06:22:55.756Z,99985.06
2023-04-15T06:25:24.075Z,99981.53
2023-04-15T06:27:53.569Z,99988.56
2023-04-15T06:30:22.895Z,99997.19
2023-04-15T06:32:50.758Z,99992.59
2023-04-15T06:35:20.722Z,100007.63
2023-04-15T06:37:47.384Z,100000.75
2023-04-15T06:40:14.313Z,100001.72
2023-04-15T06:42:41.994Z,100001.13
2023-04-15T06:45:09.596Z,100008.06
2023-04-15T06:47:36.996Z,100014.25
2023-04-15T06:50:04.197Z,100021.69
2023-04-15T06:52:31.628Z,100024.53
2023-04-15T06:54:59.625Z,100024.44
2023-04-15T06:57:26.457Z,100038.84
2023-04-15T06:59:54.673Z,100038.13
2023-04-15T07:02:22.319Z,100033.03
2023-04-15T07:04:49.113Z,100044.84
2023-04-15T07:07:18.954Z,100034.84
2023-04-15T07:09:45.665Z,100031.34
2023-04-15T07:12:12.441Z,100027.31
2023-04-15T07:14:39.163Z,100047.94
2023-04-15T07:17:05.857Z,100045.66
2023-04-15T07:19:32.570Z,100050.06
2023-04-15T07:21:59.301Z,100060.75
2023-04-15T07:24:27.207Z,100051.94
2023-04-15T07:26:59.472Z,100061.09
2023-04-15T07:29:27.565Z,100057.97
2023-04-15T07:31:54.243Z,100063.97
2023-04-15T07:34:21.266Z,100070.50
2023-04-15T07:36:54.138Z,100060.13
2023-04-15T07:39:21.028Z,100059.41
2023-04-15T07:41:49.115Z,100071.56
2023-04-15T07:44:15.803Z,100068.69
2023-04-15T07:46:42.500Z,100066.28
2023-04-15T07:49:09.387Z,100056.53
2023-04-15T07:51:36.013Z,100057.59
2023-04-15T07:54:03.302Z,100057.56
2023-04-15T07:56:30.195Z,100069.16
2023-04-15T07:58:57.028Z,100077.44
2023-04-15T08:01:23.961Z,100075.03
2023-04-15T08:03:51.139Z,100070.50
2023-04-15T08:06:18.047Z,100066.47
2023-04-15T08:08:50.358Z,100062.88
2023-04-15T08:11:17.085Z,100072.63
2023-04-15T08:13:44.145Z,100082.66
2023-04-15T08:16:21.056Z,100089.91
2023-04-15T08:18:49.321Z,100085.22
2023-04-15T08:21:17.912Z,100080.19
2023-04-15T08:23:46.265Z,100084.47
2023-04-15T08:26:13.222Z,100086.41
2023-04-15T08:28:43.658Z,100098.38
2023-04-15T08:31:10.667Z,100096.38
2023-04-15T08:33:37.373Z,100100.09
2023-04-15T08:36:04.603Z,100089.81
2023-04-15T08:38:31.354Z,100092.31
2023-04-15T08:41:00.477Z,100101.66
2023-04-15T08:43:35.063Z,100099.16
2023-04-15T08:46:03.737Z,100100.06
2023-04-15T08:48:33.327Z,100093.47
2023-04-15T08:51:01.118Z,100107.00
2023-04-15T08:53:35.436Z,100096.31
2023-04-15T08:56:06.387Z,100096.53
2023-04-15T08:58:36.148Z,100097.66
2023-04-15T09:01:03.525Z,100101.81
2023-04-15T09:03:30.921Z,100108.78
2023-04-15T09:06:01.360Z,100102.09
2023-04-15T09:08:28.170Z,100117.50
2023-04-15T09:10:55.121Z,100109.22
2023-04-15T09:13:25.134Z,100112.50
2023-04-15T09:15:53.906Z,100122.00
2023-04-15T09:18:31.486Z,100123.84
2023-04-15T09:21:09.304Z,100119.47
2023-04-15T09:23:36.536Z,100122.69
2023-04-15T09:26:06.509Z,100119.69
2023-04-15T09:28:33.596Z,100128.19
2023-04-15T09:31:02.021Z,100116.06
2023-04-15T09:33:30.444Z,100137.88
2023-04-15T09:36:05.126Z,100131.19
2023-04-15T09:38:32.691Z,100137.31
2023-04-15T09:41:02.801Z,100136.66
2023-04-15T09:43:39.697Z,100149.47
2023-04-15T09:46:06.540Z,100146.88
2023-04-15T09:48:33.794Z,100141.50
2023-04-15T09:51:07.066Z,100139.28
2023-04-15T09:53:41.703Z,100134.47
2023-04-15T09:56:11.221Z,100151.88
2023-04-15T09:58:39.170Z,100147.84
2023-04-15T10:01:08.003Z,100159.31
2023-04-15T10:03:37.823Z,100162.44
2023-04-15T10:06:09.318Z,100162.06
2023-04-15T10:08:36.573Z,100152.78
2023-04-15T10:11:04.093Z,100163.84
2023-04-15T10:13:37.666Z,100169.59
2023-04-15T10:16:26.973Z,100176.22
2023-04-15T10:18:58.423Z,100175.00
2023-04-15T10:21:25.403Z,100170.41
2023-04-15T10:24:00.819Z,100175.38
2023-04-15T10:26:36.524Z,100178.25
2023-04-15T10:29:03.881Z,100174.31
2023-04-15T10:31:31.218Z,100180.16
2023-04-15T10:33:59.776Z,100173.53
2023-04-15T10:36:27.676Z,100180.75
2023-04-15T10:38:54.613Z,100179.38
2023-04-15T10:41:27.073Z,100178.44
2023-04-15T10:44:01.500Z,100183.16
2023-04-15T10:46:38.704Z,100182.59
2023-04-15T10:49:19.901Z,100181.56
2023-04-15T10:51:51.621Z,100186.22
2023-04-15T10:54:24.181Z,100190.06
2023-04-15T10:57:23.795Z,100192.56
2023-04-15T11:00:11.335Z,100187.50
2023-04-15T11:02:54.327Z,100194.13
2023-04-15T11:05:24.074Z,100201.47
2023-04-15T11:07:55.873Z,100202.69
2023-04-15T11:10:33.087Z,100205.63
2023-04-15T11:13:03.273Z,100206.47
2023-04-15T11:15:41.818Z,100205.34
2023-04-15T11:18:28.705Z,100212.56
2023-04-15T11:21:00.119Z,100211.88
2023-04-15T11:23:46.907Z,100205.97
2023-04-15T11:26:14.282Z,100216.72
2023-04-15T11:28:43.087Z,100224.78
2023-04-15T11:31:12.345Z,100221.66
2023-04-15T11:33:59.940Z,100228.00
2023-04-15T11:36:28.935Z,100222.91
2023-04-15T11:38:57.660Z,100224.91
2023-04-15T11:41:24.819Z,100230.47
2023-04-15T11:43:52.716Z,100228.00
2023-04-15T11:46:34.745Z,100237.69
2023-04-15T11:49:01.789Z,100233.50
2023-04-15T11:51:33.268Z,100238.47
2023-04-15T11:54:00.863Z,100245.25
2023-04-15T11:56:27.746Z,100243.16
2023-04-15T11:59:03.146Z,100239.31
2023-04-15T12:01:39.516Z,100242.81
2023-04-15T12:04:22.564Z,100250.50
2023-04-15T12:06:54.213Z,100258.63
2023-04-15T12:09:21.764Z,100251.16
2023-04-15T12:11:50.358Z,100255.09
2023-04-15T12:14:33.418Z,100257.88
2023-04-15T12:17:05.068Z,100265.47
2023-04-15T12:19:40.456Z,100263.94
2023-04-15T12:22:14.020Z,100265.34
2023-04-15T12:24:44.349Z,100270.16
2023-04-15T12:27:12.443Z,100266.31
2023-04-15T12:29:41.385Z,100272.06
2023-04-15T12:32:12.170Z,100271.66
2023-04-15T12:34:41.522Z,100282.53
2023-04-15T12:37:09.913Z,100280.50
2023-04-15T12:39:42.324Z,100281.22
2023-04-15T12:42:09.524Z,100277.78
2023-04-15T12:44:37.469Z,100288.75
2023-04-15T12:47:05.042Z,100280.28
2023-04-15T12:49:39.732Z,100283.28
2023-04-15T12:52:07.510Z,100289.31
2023-04-15T12:54:34.827Z,100293.19
2023-04-15T12:57:05.557Z,100292.75
2023-04-15T12:59:33.771Z,100306.59
2023-04-15T13:02:01.218Z,100301.13
2023-04-15T13:04:30.942Z,100302.91
2023-04-15T13:06:58.155Z,100302.91
2023-04-15T13:09:25.131Z,100308.00
2023-04-15T13:11:52.779Z,100309.78
2023-04-15T13:14:19.849Z,100302.75
2023-04-15T13:16:46.531Z,100306.94
2023-04-15T13:19:13.203Z,100310.25
2023-04-15T13:21:39.925Z,100312.44
2023-04-15T13:24:07.460Z,100306.78
2023-04-15T13:26:34.494Z,100310.88
2023-04-15T13:29:01.451Z,100307.09
2023-04-15T13:31:28.282Z,100313.84
2023-04-15T13:33:54.984Z,100317.81
2023-04-15T13:36:21.805Z,100314.59
2023-04-15T13:38:50.994Z,100323.47
2023-04-15T13:41:18.239Z,100318.69
2023-04-15T13:43:44.840Z,100323.69
2023-04-15T13:46:11.573Z,100327.72
2023-04-15T13:48:38.227Z,100324.00
2023-04-15T13:51:04.859Z,100338.66
2023-04-15T13:53:39.197Z,100332.38
2023-04-15T13:56:10.370Z,100337.44
2023-04-15T13:58:38.110Z,100340.00
2023-04-15T14:01:06.977Z,100341.25
2023-04-15T14:03:36.249Z,100340.75
2023-04-15T14:06:03.551Z,100345.38
2023-04-15T14:08:30.250Z,100342.53
2023-04-15T14:10:57.800Z,100346.91
2023-04-15T14:13:24.592Z,100350.19
2023-04-15T14:15:51.285Z,100348.19
2023-04-15T14:18:17.946Z,100355.31
2023-04-15T14:20:44.508Z,100363.66
2023-04-15T14:23:11.100Z,100360.19
2023-04-15T14:25:39.395Z,100365.63
2023-04-15T14:28:06.255Z,100366.66
2023-04-15T14:30:33.056Z,100369.03
2023-04-15T14:32:59.874Z,100367.75
2023-04-15T14:35:26.814Z,100372.78
2023-04-15T14:37:54.326Z,100384.63
2023-04-15T14:40:21.215Z,100380.94
2023-04-15T14:42:48.112Z,100389.56
2023-04-15T14:45:14.795Z,100396.06
2023-04-15T14:47:41.567Z,100392.16
2023-04-15T14:50:08.680Z,100389.03
2023-04-15T14:52:38.818Z,100395.00
2023-04-15T14:55:12.579Z,100396.78
2023-04-15T14:57:40.951Z,100402.75
2023-04-15T15:00:10.690Z,100402.03
2023-04-15T15:02:40.433Z,100408.53
2023-04-15T15:05:08.309Z,100413.22
2023-04-15T15:07:37.197Z,100416.50
2023-04-15T15:10:04.740Z,100415.22
2023-04-15T15:12:31.379Z,100422.75
2023-04-15T15:14:57.985Z,100425.78
2023-04-15T15:17:24.728Z,100419.78
2023-04-15T15:19:51.564Z,100425.47
2023-04-15T15:22:20.194Z,100423.69
2023-04-15T15:24:47.904Z,100423.78
2023-04-15T15:27:14.763Z,100425.69
2023-04-15T15:29:41.482Z,100429.97
2023-04-15T15:32:08.191Z,100434.25
2023-04-15T15:34:34.813Z,100430.84
2023-04-15T15:37:01.441Z,100427.16
2023-04-15T15:39:28.124Z,100447.25
2023-04-15T15:41:55.049Z,100451.78
2023-04-15T15:44:21.664Z,100437.63
2023-04-15T15:46:48.430Z,100450.19
2023-04-15T15:49:15.132Z,100447.69
2023-04-15T15:51:41.752Z,100450.28
2023-04-15T15:54:08.360Z,100448.84
2023-04-15T15:56:35.156Z,100458.03
2023-04-15T15:59:01.944Z,100464.66
2023-04-15T16:01:28.732Z,100462.34
2023-04-15T16:03:55.460Z,100460.56
2023-04-15T16:06:22.224Z,100467.56
2023-04-15T16:08:48.832Z,100459.09
2023-04-15T16:11:15.667Z,100458.38
2023-04-15T16:13:42.270Z,100463.28
2023-04-15T16:16:09.012Z,100468.22
2023-04-15T16:18:35.623Z,100462.97
2023-04-15T16:21:02.322Z,100468.09
2023-04-15T16:23:29.112Z,100477.84
2023-04-15T16:25:55.900Z,100473.44
2023-04-15T16:28:26.950Z,100475.94
2023-04-15T16:30:54.698Z,100478.91
2023-04-15T16:33:21.398Z,100478.03
2023-04-15T16:35:48.067Z,100482.44
2023-04-15T16:38:14.757Z,100491.00
2023-04-15T16:40:41.339Z,100491.97
2023-04-15T16:43:08.274Z,100494.16
2023-04-15T16:45:35.040Z,100500.13
2023-04-15T16:48:01.728Z,100500.00
2023-04-15T16:50:28.530Z,100490.81
2023-04-15T16:52:55.257Z,100502.72
2023-04-15T16:55:21.983Z,100502.53
2023-04-15T16:58:02.694Z,100511.75
2023-04-15T17:00:31.693Z,100504.81
2023-04-15T17:02:59.134Z,100512.91
2023-04-15T17:05:27.729Z,100521.56
2023-04-15T17:07:54.662Z,100515.59
2023-04-15T17:10:21.320Z,100518.97
2023-04-15T17:12:48.191Z,100525.44
2023-04-15T17:15:14.896Z,100526.59
2023-04-15T17:17:41.498Z,100534.03
2023-04-15T17:20:08.371Z,100532.31
2023-04-15T17:22:35.048Z,100531.31
2023-04-15T17:25:01.903Z,100539.34
2023-04-15T17:27:29.061Z,100542.94
2023-04-15T17:29:56.251Z,100541.44
2023-04-15T17:32:23.590Z,100551.72
2023-04-15T17:34:51.421Z,100546.25
2023-04-15T17:37:18.705Z,100547.94
2023-04-15T17:39:45.806Z,100551.38
2023-04-15T17:42:13.201Z,100557.47
2023-04-15T17:44:39.952Z,100569.69
2023-04-15T17:47:07.464Z,100563.91
2023-04-15T17:49:34.359Z,100569.69
2023-04-15T17:52:01.406Z,100575.22
2023-04-15T17:54:28.127Z,100567.38
2023-04-15T17:56:54.919Z,100574.38
2023-04-15T17:59:21.676Z,100575.63
2023-04-15T18:01:48.448Z,100582.84
2023-04-15T18:04:15.902Z,100588.31
2023-04-15T18:06:42.802Z,100593.28
2023-04-15T18:09:09.378Z,100593.38
2023-04-15T18:11:36.270Z,100591.63
2023-04-15T18:14:04.472Z,100590.19
2023-04-15T18:16:31.511Z,100590.59
2023-04-15T18:18:58.424Z,100602.91
2023-04-15T18:21:24.993Z,100609.28
2023-04-15T18:23:51.574Z,100603.84
2023-04-15T18:26:18.240Z,100609.16
2023-04-15T18:28:45.000Z,100612.94
2023-04-15T18:31:11.589Z,100623.72
2023-04-15T18:33:39.183Z,100619.59
2023-04-15T18:36:06.014Z,100630.41
2023-04-15T18:38:32.667Z,100632.19
2023-04-15T18:40:59.361Z,100628.81
2023-04-15T18:43:26.052Z,100628.63
2023-04-15T18:45:54.614Z,100641.50
2023-04-15T18:48:21.307Z,100640.38
2023-04-15T18:50:48.452Z,100646.63
2023-04-15T18:53:19.130Z,100644.22
2023-04-15T18:55:56.805Z,100645.03
2023-04-15T18:59:23.011Z,100650.19
2023-04-15T19:01:22.760Z,100650.38
2023-04-15T19:03:53.528Z,100651.31
2023-04-15T19:06:20.773Z,100647.03
2023-04-15T19:08:47.440Z,100653.38
2023-04-15T19:11:31.657Z,100661.13
2023-04-15T19:13:58.233Z,100661.59
2023-04-15T19:16:27.773Z,100674.53
2023-04-15T19:18:56.390Z,100672.28
2023-04-15T19:21:34.664Z,100671.56
2023-04-15T19:24:01.548Z,100675.09
2023-04-15T19:26:28.668Z,100675.31
2023-04-15T19:29:09.248Z,100679.22
2023-04-15T19:31:40.433Z,100678.06
2023-04-15T19:34:10.356Z,100684.22
2023-04-15T19:36:37.084Z,100682.38
2023-04-15T19:39:04.262Z,100690.63
2023-04-15T19:41:31.072Z,100691.75
2023-04-15T19:43:57.898Z,100692.31
2023-04-15T19:46:27.947Z,100687.84
2023-04-15T19:48:55.559Z,100693.81
2023-04-15T19:51:27.977Z,100692.03
2023-04-15T19:53:56.995Z,100691.69
2023-04-15T19:56:24.846Z,100701.19
2023-04-15T19:58:54.031Z,100697.56
2023-04-15T20:01:28.178Z,100694.72
2023-04-15T20:03:59.824Z,100698.53
2023-04-15T20:06:27.524Z,100694.72
2023-04-15T20:08:59.050Z,100698.75
2023-04-15T20:12:05.676Z,100704.28
2023-04-15T20:14:17.845Z,100705.59
2023-04-15T20:16:44.779Z,100699.69
2023-04-15T20:19:13.334Z,100707.25
2023-04-15T20:21:40.141Z,100707.63
2023-04-15T20:24:07.254Z,100700.69
2023-04-15T20:26:34.039Z,100716.50
2023-04-15T20:29:02.478Z,100705.97
2023-04-15T20:31:29.672Z,100707.75
2023-04-15T20:36:38.088Z,100713.47
2023-04-15T20:39:05.050Z,100720.34
2023-04-15T20:41:31.999Z,100715.97
2023-04-15T20:43:58.810Z,100711.50
2023-04-15T20:46:27.824Z,100723.25
2023-04-15T20:48:54.479Z,100721.09
2023-04-15T20:51:21.281Z,100712.50
2023-04-15T20:53:48.203Z,100715.59
2023-04-15T20:56:15.236Z,100721.09
2023-04-15T20:58:42.138Z,100730.38
2023-04-15T21:01:08.807Z,100719.53
2023-04-15T21:03:35.954Z,100727.38
2023-04-15T21:06:10.750Z,100723.28
2023-04-15T21:08:37.427Z,100724.69
2023-04-15T21:11:04.238Z,100726.34
2023-04-15T21:13:31.220Z,100731.78
2023-04-15T21:16:01.205Z,100726.16
2023-04-15T21:18:30.322Z,100739.41
2023-04-15T21:21:01.587Z,100749.41
2023-04-15T21:23:34.079Z,100742.31
2023-04-15T21:26:06.947Z,100744.94
2023-04-15T21:28:33.772Z,100755.94
2023-04-15T21:31:02.892Z,100750.91
2023-04-15T21:33:33.586Z,100756.88
2023-04-15T21:36:18.070Z,100758.28
2023-04-15T21:39:03.466Z,100755.94
2023-04-15T21:41:33.459Z,100757.34
2023-04-15T21:44:05.596Z,100761.19
2023-04-15T21:46:47.027Z,100759.47
2023-04-15T21:49:21.870Z,100769.75
2023-04-15T21:51:56.130Z,100774.78
2023-04-15T21:54:27.295Z,100768.72
2023-04-15T21:57:01.154Z,100772.56
2023-04-15T21:59:32.997Z,100779.16
2023-04-15T22:02:14.929Z,100775.34
2023-04-15T22:04:47.789Z,100776.56
2023-04-15T22:07:22.056Z,100782.81
2023-04-15T22:09:55.206Z,100780.88
2023-04-15T22:12:21.889Z,100793.84
2023-04-15T22:14:48.857Z,100795.59
2023-04-15T22:17:15.828Z,100794.50
2023-04-15T22:19:57.007Z,100798.50
2023-04-15T22:22:43.533Z,100806.34
2023-04-15T22:25:14.122Z,100802.22
2023-04-15T22:27:43.542Z,100801.38
2023-04-15T22:30:11.052Z,100808.47
2023-04-15T22:32:38.589Z,100813.78
2023-04-15T22:35:06.677Z,100818.09
2023-04-15T22:37:40.398Z,100826.88
2023-04-15T22:40:07.656Z,100813.63
2023-04-15T22:42:34.492Z,100812.97
2023-04-15T22:45:01.293Z,100817.44
2023-04-15T22:47:32.293Z,100828.16
2023-04-15T22:49:59.130Z,100827.34
2023-04-15T22:52:31.156Z,100825.75
2023-04-15T22:54:59.063Z,100822.19
2023-04-15T22:57:27.872Z,100833.31
2023-04-15T22:59:57.794Z,100827.34
2023-04-15T23:02:27.534Z,100832.38
2023-04-15T23:05:00.510Z,100840.50
2023-04-15T23:07:30.751Z,100833.47
2023-04-15T23:09:58.075Z,100846.78
2023-04-15T23:12:27.745Z,100836.66
2023-04-15T23:15:00.896Z,100844.50
2023-04-15T23:17:40.516Z,100843.75
2023-04-15T23:20:07.606Z,100837.97
2023-04-15T23:22:47.260Z,100853.72
2023-04-15T23:25:14.144Z,100850.03
2023-04-15T23:27:40.714Z,100847.56
2023-04-15T23:30:08.001Z,100846.63
2023-04-15T23:32:34.898Z,100860.47
2023-04-15T23:35:01.655Z,100848.81
2023-04-15T23:37:31.621Z,100859.34
2023-04-15T23:39:58.647Z,100856.00
2023-04-15T23:42:25.888Z,100851.41
2023-04-15T23:44:52.475Z,100856.25
2023-04-15T23:47:19.268Z,100851.59
2023-04-15T23:49:45.980Z,100852.50
2023-04-15T23:52:12.787Z,100859.44
2023-04-15T23:54:40.402Z,100858.94
2023-04-15T23:57:07.653Z,100871.94
2023-04-15T23:59:34.487Z,100869.97
